KFME/FME METAR and TAF weather

Enter ICAO airport designator
Station Type Date Time Source
KFME METAR 2022/11/30 17:37 UTC NOAA

KFME 301737Z AUTO 20010G18KT 10SM OVC018 12/11 A2981 RMK AO1


Station Type Date Time Source
KFME Decoded METAR 2022/11/30 17:37 UTC NOAA

Fort Meade / Tipton, MD, United States (KFME) 39-05N 076-46W
Nov 30, 2022 - 12:37 PM EST / 2022.11.30 1737 UTC
Wind: from the SSW (200 degrees) at 12 MPH (10 KT) gusting to 21 MPH (18 KT):0
Visibility: 10 mile(s):0
Sky conditions: overcast
Temperature: 53 F (12 C)
Dew Point: 51 F (11 C)
Relative Humidity: 93%
Pressure (altimeter): 29.81 in. Hg (1009 hPa)
ob: KFME 301737Z AUTO 20010G18KT 10SM OVC018 12/11 A2981 RMK AO1
cycle: 17

Station Type Date Time Source
KFME TAF UTC NOAA

Error!

Example: see airport list